sensor_id;sensor_type;location;lat;lon;timestamp;P1;durP1;ratioP1;P2;durP2;ratioP2
11490;SDS011;5802;52.832;4.758;2023-07-20T00:02:25;0.90;;;0.60;;
11490;SDS011;5802;52.832;4.758;2023-07-20T00:04:52;0.68;;;0.60;;
11490;SDS011;5802;52.832;4.758;2023-07-20T00:07:18;0.68;;;0.63;;
11490;SDS011;5802;52.832;4.758;2023-07-20T00:09:47;0.52;;;0.50;;
11490;SDS011;5802;52.832;4.758;2023-07-20T00:12:13;0.57;;;0.50;;
11490;SDS011;5802;52.832;4.758;2023-07-20T00:14:40;0.50;;;0.50;;
11490;SDS011;5802;52.832;4.758;2023-07-20T00:17:07;0.90;;;0.70;;
11490;SDS011;5802;52.832;4.758;2023-07-20T00:19:34;0.82;;;0.70;;
11490;SDS011;5802;52.832;4.758;2023-07-20T00:22:01;0.50;;;0.50;;
11490;SDS011;5802;52.832;4.758;2023-07-20T00:24:29;0.80;;;0.60;;
11490;SDS011;5802;52.832;4.758;2023-07-20T00:26:57;0.68;;;0.50;;
11490;SDS011;5802;52.832;4.758;2023-07-20T00:29:25;0.85;;;0.60;;
11490;SDS011;5802;52.832;4.758;2023-07-20T00:31:52;1.30;;;0.70;;
11490;SDS011;5802;52.832;4.758;2023-07-20T00:34:19;0.82;;;0.60;;
11490;SDS011;5802;52.832;4.758;2023-07-20T00:36:45;0.40;;;0.40;;
11490;SDS011;5802;52.832;4.758;2023-07-20T00:39:14;0.50;;;0.50;;
11490;SDS011;5802;52.832;4.758;2023-07-20T00:41:40;0.70;;;0.57;;
11490;SDS011;5802;52.832;4.758;2023-07-20T00:44:08;0.88;;;0.60;;
11490;SDS011;5802;52.832;4.758;2023-07-20T00:46:35;0.50;;;0.50;;
11490;SDS011;5802;52.832;4.758;2023-07-20T00:49:02;0.70;;;0.60;;
11490;SDS011;5802;52.832;4.758;2023-07-20T00:51:28;0.75;;;0.57;;
11490;SDS011;5802;52.832;4.758;2023-07-20T00:53:55;0.80;;;0.60;;
11490;SDS011;5802;52.832;4.758;2023-07-20T00:56:22;0.70;;;0.70;;
11490;SDS011;5802;52.832;4.758;2023-07-20T00:58:49;0.50;;;0.43;;
11490;SDS011;5802;52.832;4.758;2023-07-20T01:01:18;0.68;;;0.57;;
11490;SDS011;5802;52.832;4.758;2023-07-20T01:03:45;0.50;;;0.45;;
11490;SDS011;5802;52.832;4.758;2023-07-20T01:06:14;0.43;;;0.43;;
11490;SDS011;5802;52.832;4.758;2023-07-20T01:08:51;0.50;;;0.50;;
11490;SDS011;5802;52.832;4.758;2023-07-20T01:11:28;0.63;;;0.60;;
11490;SDS011;5802;52.832;4.758;2023-07-20T01:14:02;1.27;;;0.70;;
11490;SDS011;5802;52.832;4.758;2023-07-20T01:16:30;0.63;;;0.63;;
11490;SDS011;5802;52.832;4.758;2023-07-20T01:18:58;0.75;;;0.50;;
11490;SDS011;5802;52.832;4.758;2023-07-20T01:21:26;0.57;;;0.47;;
11490;SDS011;5802;52.832;4.758;2023-07-20T01:24:13;0.80;;;0.50;;
11490;SDS011;5802;52.832;4.758;2023-07-20T01:27:00;0.93;;;0.45;;
11490;SDS011;5802;52.832;4.758;2023-07-20T01:30:03;0.60;;;0.60;;
11490;SDS011;5802;52.832;4.758;2023-07-20T01:32:41;0.82;;;0.63;;
11490;SDS011;5802;52.832;4.758;2023-07-20T01:35:10;0.63;;;0.50;;
11490;SDS011;5802;52.832;4.758;2023-07-20T01:37:40;1.08;;;0.50;;
11490;SDS011;5802;52.832;4.758;2023-07-20T01:40:11;0.88;;;0.60;;
11490;SDS011;5802;52.832;4.758;2023-07-20T01:42:42;0.40;;;0.40;;
11490;SDS011;5802;52.832;4.758;2023-07-20T01:45:10;1.00;;;0.47;;
11490;SDS011;5802;52.832;4.758;2023-07-20T01:47:36;0.80;;;0.50;;
11490;SDS011;5802;52.832;4.758;2023-07-20T01:50:05;0.65;;;0.63;;
11490;SDS011;5802;52.832;4.758;2023-07-20T01:52:33;0.57;;;0.30;;
11490;SDS011;5802;52.832;4.758;2023-07-20T01:54:59;0.65;;;0.45;;
11490;SDS011;5802;52.832;4.758;2023-07-20T01:57:26;0.57;;;0.45;;
11490;SDS011;5802;52.832;4.758;2023-07-20T01:59:53;0.30;;;0.30;;
11490;SDS011;5802;52.832;4.758;2023-07-20T02:02:20;0.77;;;0.65;;
11490;SDS011;5802;52.832;4.758;2023-07-20T02:04:45;0.47;;;0.45;;
11490;SDS011;5802;52.832;4.758;2023-07-20T02:07:14;0.47;;;0.43;;
11490;SDS011;5802;52.832;4.758;2023-07-20T02:09:43;0.50;;;0.40;;
11490;SDS011;5802;52.832;4.758;2023-07-20T02:12:10;0.65;;;0.60;;
11490;SDS011;5802;52.832;4.758;2023-07-20T02:14:37;1.10;;;0.60;;
11490;SDS011;5802;52.832;4.758;2023-07-20T02:17:04;0.50;;;0.50;;
11490;SDS011;5802;52.832;4.758;2023-07-20T02:19:31;0.52;;;0.45;;
11490;SDS011;5802;52.832;4.758;2023-07-20T02:21:57;0.63;;;0.60;;
11490;SDS011;5802;52.832;4.758;2023-07-20T02:24:25;0.47;;;0.45;;
11490;SDS011;5802;52.832;4.758;2023-07-20T02:26:52;0.40;;;0.40;;
11490;SDS011;5802;52.832;4.758;2023-07-20T02:29:19;0.52;;;0.40;;
11490;SDS011;5802;52.832;4.758;2023-07-20T02:31:46;0.73;;;0.55;;
11490;SDS011;5802;52.832;4.758;2023-07-20T02:34:12;0.40;;;0.40;;
11490;SDS011;5802;52.832;4.758;2023-07-20T02:36:39;0.70;;;0.60;;
11490;SDS011;5802;52.832;4.758;2023-07-20T02:39:07;0.90;;;0.50;;
11490;SDS011;5802;52.832;4.758;2023-07-20T02:41:36;1.13;;;0.52;;
11490;SDS011;5802;52.832;4.758;2023-07-20T02:44:02;0.63;;;0.43;;
11490;SDS011;5802;52.832;4.758;2023-07-20T02:46:30;0.75;;;0.47;;
11490;SDS011;5802;52.832;4.758;2023-07-20T02:49:00;1.65;;;0.70;;
11490;SDS011;5802;52.832;4.758;2023-07-20T02:51:27;0.50;;;0.50;;
11490;SDS011;5802;52.832;4.758;2023-07-20T02:53:53;0.50;;;0.50;;
11490;SDS011;5802;52.832;4.758;2023-07-20T02:56:20;0.75;;;0.70;;
11490;SDS011;5802;52.832;4.758;2023-07-20T02:58:49;0.57;;;0.50;;
11490;SDS011;5802;52.832;4.758;2023-07-20T03:01:17;0.95;;;0.50;;
11490;SDS011;5802;52.832;4.758;2023-07-20T03:03:43;1.08;;;0.63;;
11490;SDS011;5802;52.832;4.758;2023-07-20T03:06:11;0.60;;;0.50;;
11490;SDS011;5802;52.832;4.758;2023-07-20T03:08:39;1.13;;;0.40;;
11490;SDS011;5802;52.832;4.758;2023-07-20T03:11:07;0.50;;;0.50;;
11490;SDS011;5802;52.832;4.758;2023-07-20T03:13:34;0.38;;;0.38;;
11490;SDS011;5802;52.832;4.758;2023-07-20T03:16:02;0.30;;;0.30;;
11490;SDS011;5802;52.832;4.758;2023-07-20T03:18:29;1.15;;;0.70;;
11490;SDS011;5802;52.832;4.758;2023-07-20T03:20:56;0.70;;;0.60;;
11490;SDS011;5802;52.832;4.758;2023-07-20T03:23:23;0.45;;;0.45;;
11490;SDS011;5802;52.832;4.758;2023-07-20T03:25:51;1.08;;;0.50;;
11490;SDS011;5802;52.832;4.758;2023-07-20T03:28:20;0.50;;;0.50;;
11490;SDS011;5802;52.832;4.758;2023-07-20T03:30:46;0.63;;;0.60;;
11490;SDS011;5802;52.832;4.758;2023-07-20T03:33:20;0.77;;;0.65;;
11490;SDS011;5802;52.832;4.758;2023-07-20T03:35:47;0.70;;;0.60;;
11490;SDS011;5802;52.832;4.758;2023-07-20T03:38:14;1.48;;;0.50;;
11490;SDS011;5802;52.832;4.758;2023-07-20T03:40:48;1.30;;;0.52;;
11490;SDS011;5802;52.832;4.758;2023-07-20T03:43:15;0.60;;;0.50;;
11490;SDS011;5802;52.832;4.758;2023-07-20T03:45:42;0.63;;;0.55;;
11490;SDS011;5802;52.832;4.758;2023-07-20T03:48:10;0.40;;;0.40;;
11490;SDS011;5802;52.832;4.758;2023-07-20T03:50:38;0.50;;;0.50;;
11490;SDS011;5802;52.832;4.758;2023-07-20T03:53:05;0.50;;;0.50;;
11490;SDS011;5802;52.832;4.758;2023-07-20T03:55:31;0.80;;;0.60;;
11490;SDS011;5802;52.832;4.758;2023-07-20T03:57:58;0.82;;;0.57;;
11490;SDS011;5802;52.832;4.758;2023-07-20T04:00:25;0.90;;;0.60;;
11490;SDS011;5802;52.832;4.758;2023-07-20T04:02:51;1.13;;;0.77;;
11490;SDS011;5802;52.832;4.758;2023-07-20T04:05:19;0.47;;;0.47;;
11490;SDS011;5802;52.832;4.758;2023-07-20T04:07:47;2.67;;;0.60;;
11490;SDS011;5802;52.832;4.758;2023-07-20T04:10:14;0.55;;;0.43;;
11490;SDS011;5802;52.832;4.758;2023-07-20T04:12:40;2.05;;;0.60;;
11490;SDS011;5802;52.832;4.758;2023-07-20T04:15:08;2.92;;;0.68;;
11490;SDS011;5802;52.832;4.758;2023-07-20T04:17:35;0.60;;;0.50;;
11490;SDS011;5802;52.832;4.758;2023-07-20T04:20:02;0.82;;;0.55;;
11490;SDS011;5802;52.832;4.758;2023-07-20T04:22:31;0.60;;;0.60;;
11490;SDS011;5802;52.832;4.758;2023-07-20T04:24:59;0.50;;;0.50;;
11490;SDS011;5802;52.832;4.758;2023-07-20T04:27:25;0.40;;;0.40;;
11490;SDS011;5802;52.832;4.758;2023-07-20T04:29:52;1.15;;;0.60;;
11490;SDS011;5802;52.832;4.758;2023-07-20T04:32:19;0.73;;;0.40;;
11490;SDS011;5802;52.832;4.758;2023-07-20T04:34:46;0.40;;;0.40;;
11490;SDS011;5802;52.832;4.758;2023-07-20T04:37:12;0.70;;;0.60;;
11490;SDS011;5802;52.832;4.758;2023-07-20T04:39:39;0.52;;;0.50;;
11490;SDS011;5802;52.832;4.758;2023-07-20T04:42:07;0.60;;;0.60;;
11490;SDS011;5802;52.832;4.758;2023-07-20T04:44:34;0.40;;;0.40;;
11490;SDS011;5802;52.832;4.758;2023-07-20T04:47:01;1.00;;;0.50;;
11490;SDS011;5802;52.832;4.758;2023-07-20T04:49:28;0.90;;;0.57;;
11490;SDS011;5802;52.832;4.758;2023-07-20T04:51:54;0.40;;;0.40;;
11490;SDS011;5802;52.832;4.758;2023-07-20T04:54:21;0.60;;;0.60;;
11490;SDS011;5802;52.832;4.758;2023-07-20T04:56:48;0.60;;;0.60;;
11490;SDS011;5802;52.832;4.758;2023-07-20T04:59:16;0.60;;;0.60;;
11490;SDS011;5802;52.832;4.758;2023-07-20T05:01:43;0.55;;;0.50;;
11490;SDS011;5802;52.832;4.758;2023-07-20T05:04:09;0.50;;;0.50;;
11490;SDS011;5802;52.832;4.758;2023-07-20T05:06:36;0.57;;;0.38;;
11490;SDS011;5802;52.832;4.758;2023-07-20T05:09:03;0.45;;;0.45;;
11490;SDS011;5802;52.832;4.758;2023-07-20T05:11:32;0.45;;;0.45;;
11490;SDS011;5802;52.832;4.758;2023-07-20T05:13:59;1.10;;;0.50;;
11490;SDS011;5802;52.832;4.758;2023-07-20T05:16:27;0.70;;;0.50;;
11490;SDS011;5802;52.832;4.758;2023-07-20T05:18:54;0.88;;;0.47;;
11490;SDS011;5802;52.832;4.758;2023-07-20T05:21:22;0.50;;;0.45;;
11490;SDS011;5802;52.832;4.758;2023-07-20T05:23:49;0.70;;;0.57;;
11490;SDS011;5802;52.832;4.758;2023-07-20T05:26:15;0.75;;;0.50;;
11490;SDS011;5802;52.832;4.758;2023-07-20T05:28:42;0.80;;;0.57;;
11490;SDS011;5802;52.832;4.758;2023-07-20T05:31:09;0.98;;;0.60;;
11490;SDS011;5802;52.832;4.758;2023-07-20T05:33:37;0.55;;;0.50;;
11490;SDS011;5802;52.832;4.758;2023-07-20T05:36:04;0.52;;;0.52;;
11490;SDS011;5802;52.832;4.758;2023-07-20T05:38:31;0.50;;;0.50;;
11490;SDS011;5802;52.832;4.758;2023-07-20T05:40:59;0.82;;;0.63;;
11490;SDS011;5802;52.832;4.758;2023-07-20T05:43:27;0.57;;;0.50;;
11490;SDS011;5802;52.832;4.758;2023-07-20T05:45:53;0.30;;;0.30;;
11490;SDS011;5802;52.832;4.758;2023-07-20T05:48:20;1.33;;;0.52;;
11490;SDS011;5802;52.832;4.758;2023-07-20T05:50:48;0.75;;;0.52;;
11490;SDS011;5802;52.832;4.758;2023-07-20T05:53:15;0.73;;;0.50;;
11490;SDS011;5802;52.832;4.758;2023-07-20T05:55:42;0.57;;;0.57;;
11490;SDS011;5802;52.832;4.758;2023-07-20T05:58:09;0.80;;;0.60;;
11490;SDS011;5802;52.832;4.758;2023-07-20T06:00:36;0.60;;;0.50;;
11490;SDS011;5802;52.832;4.758;2023-07-20T06:03:02;0.82;;;0.50;;
11490;SDS011;5802;52.832;4.758;2023-07-20T06:05:29;1.45;;;0.60;;
11490;SDS011;5802;52.832;4.758;2023-07-20T06:07:57;0.57;;;0.43;;
11490;SDS011;5802;52.832;4.758;2023-07-20T06:10:25;1.50;;;0.57;;
11490;SDS011;5802;52.832;4.758;2023-07-20T06:12:52;0.68;;;0.50;;
11490;SDS011;5802;52.832;4.758;2023-07-20T06:15:26;0.95;;;0.50;;
11490;SDS011;5802;52.832;4.758;2023-07-20T06:17:54;0.50;;;0.50;;
11490;SDS011;5802;52.832;4.758;2023-07-20T06:20:23;0.50;;;0.50;;
11490;SDS011;5802;52.832;4.758;2023-07-20T06:22:49;1.00;;;0.60;;
11490;SDS011;5802;52.832;4.758;2023-07-20T06:25:18;1.83;;;0.47;;
11490;SDS011;5802;52.832;4.758;2023-07-20T06:27:45;0.50;;;0.50;;
11490;SDS011;5802;52.832;4.758;2023-07-20T06:30:12;0.70;;;0.60;;
11490;SDS011;5802;52.832;4.758;2023-07-20T06:32:39;0.95;;;0.70;;
11490;SDS011;5802;52.832;4.758;2023-07-20T06:35:06;1.13;;;0.60;;
11490;SDS011;5802;52.832;4.758;2023-07-20T06:37:33;0.38;;;0.38;;
11490;SDS011;5802;52.832;4.758;2023-07-20T06:40:01;2.15;;;0.50;;
11490;SDS011;5802;52.832;4.758;2023-07-20T06:42:30;0.60;;;0.60;;
11490;SDS011;5802;52.832;4.758;2023-07-20T06:44:57;0.75;;;0.70;;
11490;SDS011;5802;52.832;4.758;2023-07-20T06:47:23;0.80;;;0.60;;
11490;SDS011;5802;52.832;4.758;2023-07-20T06:49:50;0.70;;;0.57;;
11490;SDS011;5802;52.832;4.758;2023-07-20T06:52:17;0.73;;;0.73;;
11490;SDS011;5802;52.832;4.758;2023-07-20T06:54:43;1.42;;;0.80;;
11490;SDS011;5802;52.832;4.758;2023-07-20T06:57:10;1.20;;;0.60;;
11490;SDS011;5802;52.832;4.758;2023-07-20T06:59:38;0.70;;;0.63;;
11490;SDS011;5802;52.832;4.758;2023-07-20T07:02:05;0.82;;;0.60;;
11490;SDS011;5802;52.832;4.758;2023-07-20T07:04:31;0.70;;;0.60;;
11490;SDS011;5802;52.832;4.758;2023-07-20T07:06:58;0.60;;;0.60;;
11490;SDS011;5802;52.832;4.758;2023-07-20T07:09:25;0.82;;;0.70;;
11490;SDS011;5802;52.832;4.758;2023-07-20T07:11:52;0.60;;;0.60;;
11490;SDS011;5802;52.832;4.758;2023-07-20T07:14:19;0.73;;;0.60;;
11490;SDS011;5802;52.832;4.758;2023-07-20T07:16:47;0.73;;;0.60;;
11490;SDS011;5802;52.832;4.758;2023-07-20T07:19:14;1.60;;;0.75;;
11490;SDS011;5802;52.832;4.758;2023-07-20T07:21:41;0.55;;;0.50;;
11490;SDS011;5802;52.832;4.758;2023-07-20T07:24:07;0.50;;;0.50;;
11490;SDS011;5802;52.832;4.758;2023-07-20T07:26:35;0.73;;;0.60;;
11490;SDS011;5802;52.832;4.758;2023-07-20T07:29:02;1.42;;;0.80;;
11490;SDS011;5802;52.832;4.758;2023-07-20T07:31:28;2.53;;;0.70;;
11490;SDS011;5802;52.832;4.758;2023-07-20T07:33:57;1.50;;;0.95;;
11490;SDS011;5802;52.832;4.758;2023-07-20T07:36:24;2.08;;;0.77;;
11490;SDS011;5802;52.832;4.758;2023-07-20T07:38:50;1.02;;;0.80;;
11490;SDS011;5802;52.832;4.758;2023-07-20T07:41:17;1.08;;;0.90;;
11490;SDS011;5802;52.832;4.758;2023-07-20T07:43:44;1.90;;;1.00;;
11490;SDS011;5802;52.832;4.758;2023-07-20T07:46:10;1.80;;;0.90;;
11490;SDS011;5802;52.832;4.758;2023-07-20T07:48:37;1.77;;;1.10;;
11490;SDS011;5802;52.832;4.758;2023-07-20T07:51:05;0.95;;;0.77;;
11490;SDS011;5802;52.832;4.758;2023-07-20T07:53:32;1.27;;;1.17;;
11490;SDS011;5802;52.832;4.758;2023-07-20T07:56:01;1.83;;;0.90;;
11490;SDS011;5802;52.832;4.758;2023-07-20T07:58:28;1.83;;;0.82;;
11490;SDS011;5802;52.832;4.758;2023-07-20T08:00:54;1.00;;;0.85;;
11490;SDS011;5802;52.832;4.758;2023-07-20T08:03:21;2.03;;;1.00;;
11490;SDS011;5802;52.832;4.758;2023-07-20T08:05:49;1.92;;;1.00;;
11490;SDS011;5802;52.832;4.758;2023-07-20T08:08:17;2.38;;;1.10;;
11490;SDS011;5802;52.832;4.758;2023-07-20T08:10:44;2.75;;;0.90;;
11490;SDS011;5802;52.832;4.758;2023-07-20T08:13:10;3.80;;;1.10;;
11490;SDS011;5802;52.832;4.758;2023-07-20T08:15:37;1.75;;;0.90;;
11490;SDS011;5802;52.832;4.758;2023-07-20T08:18:04;2.17;;;1.10;;
11490;SDS011;5802;52.832;4.758;2023-07-20T08:20:32;1.77;;;1.25;;
11490;SDS011;5802;52.832;4.758;2023-07-20T08:23:00;1.15;;;0.88;;
11490;SDS011;5802;52.832;4.758;2023-07-20T08:25:29;1.80;;;1.02;;
11490;SDS011;5802;52.832;4.758;2023-07-20T08:27:55;0.95;;;0.80;;
11490;SDS011;5802;52.832;4.758;2023-07-20T08:30:22;1.85;;;1.08;;
11490;SDS011;5802;52.832;4.758;2023-07-20T08:32:49;2.50;;;1.00;;
11490;SDS011;5802;52.832;4.758;2023-07-20T08:35:17;1.10;;;0.90;;
11490;SDS011;5802;52.832;4.758;2023-07-20T08:37:44;2.58;;;1.10;;
11490;SDS011;5802;52.832;4.758;2023-07-20T08:40:11;2.38;;;1.27;;
11490;SDS011;5802;52.832;4.758;2023-07-20T08:42:41;2.80;;;0.90;;
11490;SDS011;5802;52.832;4.758;2023-07-20T08:45:09;2.95;;;1.38;;
11490;SDS011;5802;52.832;4.758;2023-07-20T08:47:39;1.85;;;0.93;;
11490;SDS011;5802;52.832;4.758;2023-07-20T08:50:09;4.07;;;1.00;;
11490;SDS011;5802;52.832;4.758;2023-07-20T08:52:37;2.05;;;0.90;;
11490;SDS011;5802;52.832;4.758;2023-07-20T08:55:04;1.50;;;0.90;;
11490;SDS011;5802;52.832;4.758;2023-07-20T08:57:31;5.10;;;1.02;;
11490;SDS011;5802;52.832;4.758;2023-07-20T09:00:01;0.90;;;0.88;;
11490;SDS011;5802;52.832;4.758;2023-07-20T09:02:31;2.58;;;0.98;;
11490;SDS011;5802;52.832;4.758;2023-07-20T09:05:01;2.40;;;1.10;;
11490;SDS011;5802;52.832;4.758;2023-07-20T09:07:29;1.30;;;0.80;;
11490;SDS011;5802;52.832;4.758;2023-07-20T09:09:58;1.02;;;0.90;;
11490;SDS011;5802;52.832;4.758;2023-07-20T09:12:30;1.60;;;0.90;;
11490;SDS011;5802;52.832;4.758;2023-07-20T09:15:06;1.73;;;0.90;;
11490;SDS011;5802;52.832;4.758;2023-07-20T09:17:34;2.00;;;0.90;;
11490;SDS011;5802;52.832;4.758;2023-07-20T09:20:04;2.10;;;0.80;;
11490;SDS011;5802;52.832;4.758;2023-07-20T09:22:35;1.60;;;1.02;;
11490;SDS011;5802;52.832;4.758;2023-07-20T09:25:05;1.38;;;0.80;;
11490;SDS011;5802;52.832;4.758;2023-07-20T09:27:35;2.03;;;1.00;;
11490;SDS011;5802;52.832;4.758;2023-07-20T09:30:06;1.60;;;0.88;;
11490;SDS011;5802;52.832;4.758;2023-07-20T09:32:38;2.28;;;1.05;;
11490;SDS011;5802;52.832;4.758;2023-07-20T09:35:06;1.20;;;0.68;;
11490;SDS011;5802;52.832;4.758;2023-07-20T09:37:33;1.20;;;0.90;;
11490;SDS011;5802;52.832;4.758;2023-07-20T09:40:00;1.75;;;1.08;;
11490;SDS011;5802;52.832;4.758;2023-07-20T09:42:27;1.73;;;0.90;;
11490;SDS011;5802;52.832;4.758;2023-07-20T09:44:54;1.95;;;1.02;;
11490;SDS011;5802;52.832;4.758;2023-07-20T09:47:23;0.80;;;0.80;;
11490;SDS011;5802;52.832;4.758;2023-07-20T09:49:57;1.00;;;0.77;;
11490;SDS011;5802;52.832;4.758;2023-07-20T09:52:25;3.33;;;1.00;;
11490;SDS011;5802;52.832;4.758;2023-07-20T09:54:52;1.05;;;0.82;;
11490;SDS011;5802;52.832;4.758;2023-07-20T09:57:20;0.90;;;0.70;;
11490;SDS011;5802;52.832;4.758;2023-07-20T09:59:47;3.55;;;0.93;;
11490;SDS011;5802;52.832;4.758;2023-07-20T10:02:16;1.30;;;1.00;;
11490;SDS011;5802;52.832;4.758;2023-07-20T10:04:48;4.15;;;0.90;;
11490;SDS011;5802;52.832;4.758;2023-07-20T10:07:18;1.95;;;0.88;;
11490;SDS011;5802;52.832;4.758;2023-07-20T10:09:48;1.33;;;0.90;;
11490;SDS011;5802;52.832;4.758;2023-07-20T10:12:19;2.75;;;0.98;;
11490;SDS011;5802;52.832;4.758;2023-07-20T10:14:49;2.65;;;1.00;;
11490;SDS011;5802;52.832;4.758;2023-07-20T10:17:20;3.38;;;0.95;;
11490;SDS011;5802;52.832;4.758;2023-07-20T10:19:50;3.00;;;1.00;;
11490;SDS011;5802;52.832;4.758;2023-07-20T10:22:22;2.30;;;0.90;;
11490;SDS011;5802;52.832;4.758;2023-07-20T10:24:52;1.67;;;0.77;;
11490;SDS011;5802;52.832;4.758;2023-07-20T10:27:23;1.98;;;0.95;;
11490;SDS011;5802;52.832;4.758;2023-07-20T10:29:50;4.03;;;1.00;;
11490;SDS011;5802;52.832;4.758;2023-07-20T10:32:18;2.15;;;0.88;;
11490;SDS011;5802;52.832;4.758;2023-07-20T10:34:50;2.30;;;1.13;;
11490;SDS011;5802;52.832;4.758;2023-07-20T10:40:27;1.67;;;0.98;;
11490;SDS011;5802;52.832;4.758;2023-07-20T10:42:57;1.52;;;0.90;;
11490;SDS011;5802;52.832;4.758;2023-07-20T10:45:42;2.08;;;0.98;;
11490;SDS011;5802;52.832;4.758;2023-07-20T10:48:15;1.52;;;0.90;;
11490;SDS011;5802;52.832;4.758;2023-07-20T10:50:44;2.05;;;1.02;;
11490;SDS011;5802;52.832;4.758;2023-07-20T10:53:13;1.50;;;1.00;;
11490;SDS011;5802;52.832;4.758;2023-07-20T10:55:40;4.53;;;0.80;;
11490;SDS011;5802;52.832;4.758;2023-07-20T10:58:09;2.00;;;0.98;;
11490;SDS011;5802;52.832;4.758;2023-07-20T11:00:37;4.53;;;1.05;;
11490;SDS011;5802;52.832;4.758;2023-07-20T11:03:26;1.25;;;1.00;;
11490;SDS011;5802;52.832;4.758;2023-07-20T11:05:56;0.93;;;0.68;;
11490;SDS011;5802;52.832;4.758;2023-07-20T11:08:39;1.92;;;0.90;;
11490;SDS011;5802;52.832;4.758;2023-07-20T11:11:23;1.85;;;0.95;;
11490;SDS011;5802;52.832;4.758;2023-07-20T11:13:54;1.42;;;0.77;;
11490;SDS011;5802;52.832;4.758;2023-07-20T11:16:31;8.45;;;1.00;;
11490;SDS011;5802;52.832;4.758;2023-07-20T11:19:12;2.70;;;0.90;;
11490;SDS011;5802;52.832;4.758;2023-07-20T11:21:43;2.55;;;0.98;;
11490;SDS011;5802;52.832;4.758;2023-07-20T11:24:11;1.20;;;0.82;;
11490;SDS011;5802;52.832;4.758;2023-07-20T11:26:42;2.10;;;1.08;;
11490;SDS011;5802;52.832;4.758;2023-07-20T11:29:09;0.80;;;0.75;;
11490;SDS011;5802;52.832;4.758;2023-07-20T11:31:37;1.27;;;0.95;;
11490;SDS011;5802;52.832;4.758;2023-07-20T11:34:04;1.88;;;0.90;;
11490;SDS011;5802;52.832;4.758;2023-07-20T11:36:30;2.22;;;1.02;;
11490;SDS011;5802;52.832;4.758;2023-07-20T11:38:59;1.38;;;0.73;;
11490;SDS011;5802;52.832;4.758;2023-07-20T11:41:26;2.35;;;1.02;;
11490;SDS011;5802;52.832;4.758;2023-07-20T11:43:53;1.80;;;0.90;;
11490;SDS011;5802;52.832;4.758;2023-07-20T11:46:21;1.48;;;0.90;;
11490;SDS011;5802;52.832;4.758;2023-07-20T11:48:48;1.05;;;0.90;;
11490;SDS011;5802;52.832;4.758;2023-07-20T11:51:14;1.83;;;0.75;;
11490;SDS011;5802;52.832;4.758;2023-07-20T11:53:42;2.00;;;0.95;;
11490;SDS011;5802;52.832;4.758;2023-07-20T11:56:11;1.58;;;0.80;;
11490;SDS011;5802;52.832;4.758;2023-07-20T11:58:43;1.13;;;0.90;;
11490;SDS011;5802;52.832;4.758;2023-07-20T12:01:11;2.10;;;1.00;;
11490;SDS011;5802;52.832;4.758;2023-07-20T12:03:38;3.72;;;1.15;;
11490;SDS011;5802;52.832;4.758;2023-07-20T12:06:08;1.40;;;1.00;;
11490;SDS011;5802;52.832;4.758;2023-07-20T12:08:37;4.15;;;1.10;;
11490;SDS011;5802;52.832;4.758;2023-07-20T12:11:04;7.05;;;0.95;;
11490;SDS011;5802;52.832;4.758;2023-07-20T12:13:42;1.40;;;1.30;;
11490;SDS011;5802;52.832;4.758;2023-07-20T12:16:10;1.40;;;0.93;;
11490;SDS011;5802;52.832;4.758;2023-07-20T12:18:39;3.28;;;1.20;;
11490;SDS011;5802;52.832;4.758;2023-07-20T12:21:06;2.40;;;1.02;;
11490;SDS011;5802;52.832;4.758;2023-07-20T12:23:37;1.23;;;1.00;;
11490;SDS011;5802;52.832;4.758;2023-07-20T12:26:07;0.82;;;0.82;;
11490;SDS011;5802;52.832;4.758;2023-07-20T12:28:36;1.10;;;1.00;;
11490;SDS011;5802;52.832;4.758;2023-07-20T12:31:07;0.93;;;0.80;;
11490;SDS011;5802;52.832;4.758;2023-07-20T12:33:34;3.58;;;1.02;;
11490;SDS011;5802;52.832;4.758;2023-07-20T12:36:01;1.60;;;0.82;;
11490;SDS011;5802;52.832;4.758;2023-07-20T12:38:28;2.10;;;0.88;;
11490;SDS011;5802;52.832;4.758;2023-07-20T12:40:55;1.27;;;0.80;;
11490;SDS011;5802;52.832;4.758;2023-07-20T12:43:23;2.08;;;1.15;;
11490;SDS011;5802;52.832;4.758;2023-07-20T12:45:51;1.35;;;0.90;;
11490;SDS011;5802;52.832;4.758;2023-07-20T12:48:18;2.75;;;0.88;;
11490;SDS011;5802;52.832;4.758;2023-07-20T12:50:45;1.45;;;0.95;;
11490;SDS011;5802;52.832;4.758;2023-07-20T12:53:12;2.22;;;1.00;;
11490;SDS011;5802;52.832;4.758;2023-07-20T12:55:38;4.15;;;1.10;;
11490;SDS011;5802;52.832;4.758;2023-07-20T12:58:06;1.17;;;0.98;;
11490;SDS011;5802;52.832;4.758;2023-07-20T13:00:33;1.45;;;0.93;;
11490;SDS011;5802;52.832;4.758;2023-07-20T13:03:02;1.30;;;1.00;;
11490;SDS011;5802;52.832;4.758;2023-07-20T13:05:30;1.10;;;0.80;;
11490;SDS011;5802;52.832;4.758;2023-07-20T13:07:57;2.30;;;1.20;;
11490;SDS011;5802;52.832;4.758;2023-07-20T13:10:24;2.05;;;1.35;;
11490;SDS011;5802;52.832;4.758;2023-07-20T13:12:51;1.30;;;1.00;;
11490;SDS011;5802;52.832;4.758;2023-07-20T13:15:18;1.00;;;0.90;;
11490;SDS011;5802;52.832;4.758;2023-07-20T13:17:44;1.40;;;0.90;;
11490;SDS011;5802;52.832;4.758;2023-07-20T13:20:13;2.47;;;1.00;;
11490;SDS011;5802;52.832;4.758;2023-07-20T13:22:40;1.38;;;1.02;;
11490;SDS011;5802;52.832;4.758;2023-07-20T13:25:07;1.75;;;1.00;;
11490;SDS011;5802;52.832;4.758;2023-07-20T13:27:34;2.20;;;1.00;;
11490;SDS011;5802;52.832;4.758;2023-07-20T13:30:01;1.40;;;1.10;;
11490;SDS011;5802;52.832;4.758;2023-07-20T13:32:31;1.00;;;0.90;;
11490;SDS011;5802;52.832;4.758;2023-07-20T13:34:58;1.20;;;1.05;;
11490;SDS011;5802;52.832;4.758;2023-07-20T13:37:26;1.17;;;0.98;;
11490;SDS011;5802;52.832;4.758;2023-07-20T13:39:53;1.17;;;1.00;;
11490;SDS011;5802;52.832;4.758;2023-07-20T13:42:20;5.10;;;1.15;;
11490;SDS011;5802;52.832;4.758;2023-07-20T13:44:47;0.93;;;0.90;;
11490;SDS011;5802;52.832;4.758;2023-07-20T13:47:13;1.10;;;1.00;;
11490;SDS011;5802;52.832;4.758;2023-07-20T13:49:40;1.42;;;1.13;;
11490;SDS011;5802;52.832;4.758;2023-07-20T13:52:07;4.35;;;1.15;;
11490;SDS011;5802;52.832;4.758;2023-07-20T13:54:35;1.80;;;1.08;;
11490;SDS011;5802;52.832;4.758;2023-07-20T13:57:02;2.78;;;1.02;;
11490;SDS011;5802;52.832;4.758;2023-07-20T13:59:29;1.17;;;0.90;;
11490;SDS011;5802;52.832;4.758;2023-07-20T14:01:56;2.47;;;1.02;;
11490;SDS011;5802;52.832;4.758;2023-07-20T14:04:23;1.10;;;1.00;;
11490;SDS011;5802;52.832;4.758;2023-07-20T14:06:49;1.42;;;0.98;;
11490;SDS011;5802;52.832;4.758;2023-07-20T14:09:17;1.13;;;1.02;;
11490;SDS011;5802;52.832;4.758;2023-07-20T14:11:44;1.25;;;0.93;;
11490;SDS011;5802;52.832;4.758;2023-07-20T14:14:11;1.42;;;1.05;;
11490;SDS011;5802;52.832;4.758;2023-07-20T14:16:38;1.20;;;1.02;;
11490;SDS011;5802;52.832;4.758;2023-07-20T14:19:04;1.45;;;0.90;;
11490;SDS011;5802;52.832;4.758;2023-07-20T14:21:31;1.20;;;0.88;;
11490;SDS011;5802;52.832;4.758;2023-07-20T14:23:58;1.40;;;1.00;;
11490;SDS011;5802;52.832;4.758;2023-07-20T14:26:25;1.25;;;0.93;;
11490;SDS011;5802;52.832;4.758;2023-07-20T14:28:53;1.70;;;0.88;;
11490;SDS011;5802;52.832;4.758;2023-07-20T14:31:19;2.88;;;0.90;;
11490;SDS011;5802;52.832;4.758;2023-07-20T14:33:47;3.53;;;1.08;;
11490;SDS011;5802;52.832;4.758;2023-07-20T14:36:14;1.02;;;0.90;;
11490;SDS011;5802;52.832;4.758;2023-07-20T14:38:41;1.00;;;0.77;;
11490;SDS011;5802;52.832;4.758;2023-07-20T14:41:08;1.23;;;0.90;;
11490;SDS011;5802;52.832;4.758;2023-07-20T14:43:35;1.23;;;1.10;;
11490;SDS011;5802;52.832;4.758;2023-07-20T14:46:03;1.60;;;0.90;;
11490;SDS011;5802;52.832;4.758;2023-07-20T14:48:29;1.23;;;0.85;;
11490;SDS011;5802;52.832;4.758;2023-07-20T14:50:56;1.98;;;1.10;;
11490;SDS011;5802;52.832;4.758;2023-07-20T14:53:24;0.73;;;0.73;;
11490;SDS011;5802;52.832;4.758;2023-07-20T14:55:53;1.17;;;0.95;;
11490;SDS011;5802;52.832;4.758;2023-07-20T14:58:24;1.20;;;0.80;;
11490;SDS011;5802;52.832;4.758;2023-07-20T15:00:51;1.20;;;1.00;;
11490;SDS011;5802;52.832;4.758;2023-07-20T15:03:19;0.90;;;0.90;;
11490;SDS011;5802;52.832;4.758;2023-07-20T15:05:46;0.80;;;0.80;;
11490;SDS011;5802;52.832;4.758;2023-07-20T15:08:12;1.00;;;0.90;;
11490;SDS011;5802;52.832;4.758;2023-07-20T15:10:39;1.08;;;0.88;;